sensor_id;sensor_type;location;lat;lon;timestamp;P1;durP1;ratioP1;P2;durP2;ratioP2
36377;SDS011;22402;42.746;23.606;2023-09-18T00:00:43;8.43;;;7.13;;
36377;SDS011;22402;42.746;23.606;2023-09-18T00:03:09;9.33;;;6.77;;
36377;SDS011;22402;42.746;23.606;2023-09-18T00:05:35;8.63;;;7.73;;
36377;SDS011;22402;42.746;23.606;2023-09-18T00:08:00;7.97;;;7.13;;
36377;SDS011;22402;42.746;23.606;2023-09-18T00:10:27;8.33;;;6.83;;
36377;SDS011;22402;42.746;23.606;2023-09-18T00:12:54;10.37;;;6.40;;
36377;SDS011;22402;42.746;23.606;2023-09-18T00:15:19;10.53;;;6.90;;
36377;SDS011;22402;42.746;23.606;2023-09-18T00:17:45;7.80;;;7.00;;
36377;SDS011;22402;42.746;23.606;2023-09-18T00:20:10;12.97;;;7.30;;
36377;SDS011;22402;42.746;23.606;2023-09-18T00:22:37;10.40;;;7.37;;
36377;SDS011;22402;42.746;23.606;2023-09-18T00:25:02;7.57;;;6.57;;
36377;SDS011;22402;42.746;23.606;2023-09-18T00:27:28;10.17;;;6.60;;
36377;SDS011;22402;42.746;23.606;2023-09-18T00:29:54;11.30;;;7.23;;
36377;SDS011;22402;42.746;23.606;2023-09-18T00:32:20;15.73;;;8.13;;
36377;SDS011;22402;42.746;23.606;2023-09-18T00:34:45;11.40;;;8.10;;
36377;SDS011;22402;42.746;23.606;2023-09-18T00:37:11;12.60;;;8.27;;
36377;SDS011;22402;42.746;23.606;2023-09-18T00:39:37;12.47;;;7.50;;
36377;SDS011;22402;42.746;23.606;2023-09-18T00:42:03;12.13;;;7.03;;
36377;SDS011;22402;42.746;23.606;2023-09-18T00:44:28;11.53;;;7.40;;
36377;SDS011;22402;42.746;23.606;2023-09-18T00:46:54;9.07;;;6.50;;
36377;SDS011;22402;42.746;23.606;2023-09-18T00:49:21;9.90;;;6.30;;
36377;SDS011;22402;42.746;23.606;2023-09-18T00:51:48;7.83;;;5.93;;
36377;SDS011;22402;42.746;23.606;2023-09-18T00:54:15;6.83;;;5.60;;
36377;SDS011;22402;42.746;23.606;2023-09-18T00:56:44;7.03;;;5.63;;
36377;SDS011;22402;42.746;23.606;2023-09-18T00:59:10;7.53;;;5.90;;
36377;SDS011;22402;42.746;23.606;2023-09-18T01:01:36;11.10;;;6.67;;
36377;SDS011;22402;42.746;23.606;2023-09-18T01:04:04;7.07;;;5.73;;
36377;SDS011;22402;42.746;23.606;2023-09-18T01:06:30;14.70;;;6.40;;
36377;SDS011;22402;42.746;23.606;2023-09-18T01:08:55;7.93;;;5.60;;
36377;SDS011;22402;42.746;23.606;2023-09-18T01:11:33;10.97;;;6.60;;
36377;SDS011;22402;42.746;23.606;2023-09-18T01:16:51;6.53;;;5.83;;
36377;SDS011;22402;42.746;23.606;2023-09-18T01:19:37;9.20;;;6.40;;
36377;SDS011;22402;42.746;23.606;2023-09-18T01:22:07;9.63;;;5.53;;
36377;SDS011;22402;42.746;23.606;2023-09-18T01:24:34;13.33;;;5.70;;
36377;SDS011;22402;42.746;23.606;2023-09-18T01:27:00;8.67;;;5.23;;
36377;SDS011;22402;42.746;23.606;2023-09-18T01:29:26;6.40;;;5.33;;
36377;SDS011;22402;42.746;23.606;2023-09-18T01:31:52;9.60;;;4.90;;
36377;SDS011;22402;42.746;23.606;2023-09-18T01:34:19;7.73;;;5.37;;
36377;SDS011;22402;42.746;23.606;2023-09-18T01:36:49;10.33;;;5.20;;
36377;SDS011;22402;42.746;23.606;2023-09-18T01:39:16;7.67;;;5.90;;
36377;SDS011;22402;42.746;23.606;2023-09-18T01:41:42;7.33;;;4.80;;
36377;SDS011;22402;42.746;23.606;2023-09-18T01:44:08;6.07;;;5.47;;
36377;SDS011;22402;42.746;23.606;2023-09-18T01:46:34;12.80;;;4.67;;
36377;SDS011;22402;42.746;23.606;2023-09-18T01:49:03;9.43;;;4.70;;
36377;SDS011;22402;42.746;23.606;2023-09-18T01:51:29;8.77;;;5.10;;
36377;SDS011;22402;42.746;23.606;2023-09-18T01:53:55;8.50;;;4.93;;
36377;SDS011;22402;42.746;23.606;2023-09-18T01:56:21;9.63;;;5.43;;
36377;SDS011;22402;42.746;23.606;2023-09-18T01:58:47;6.80;;;4.67;;
36377;SDS011;22402;42.746;23.606;2023-09-18T02:01:12;8.30;;;5.40;;
36377;SDS011;22402;42.746;23.606;2023-09-18T02:03:38;11.33;;;4.93;;
36377;SDS011;22402;42.746;23.606;2023-09-18T02:06:07;7.20;;;5.20;;
36377;SDS011;22402;42.746;23.606;2023-09-18T02:08:33;9.20;;;6.10;;
36377;SDS011;22402;42.746;23.606;2023-09-18T02:10:59;6.60;;;4.40;;
36377;SDS011;22402;42.746;23.606;2023-09-18T02:13:25;10.87;;;5.60;;
36377;SDS011;22402;42.746;23.606;2023-09-18T02:15:50;6.20;;;5.10;;
36377;SDS011;22402;42.746;23.606;2023-09-18T02:18:16;10.40;;;5.97;;
36377;SDS011;22402;42.746;23.606;2023-09-18T02:20:41;8.50;;;5.93;;
36377;SDS011;22402;42.746;23.606;2023-09-18T02:23:07;5.30;;;4.80;;
36377;SDS011;22402;42.746;23.606;2023-09-18T02:25:32;8.13;;;5.23;;
36377;SDS011;22402;42.746;23.606;2023-09-18T02:27:58;8.73;;;5.80;;
36377;SDS011;22402;42.746;23.606;2023-09-18T02:30:23;9.37;;;6.00;;
36377;SDS011;22402;42.746;23.606;2023-09-18T02:32:49;7.27;;;5.60;;
36377;SDS011;22402;42.746;23.606;2023-09-18T02:35:15;7.07;;;5.70;;
36377;SDS011;22402;42.746;23.606;2023-09-18T02:37:40;5.73;;;4.97;;
36377;SDS011;22402;42.746;23.606;2023-09-18T02:40:06;5.73;;;5.10;;
36377;SDS011;22402;42.746;23.606;2023-09-18T02:42:32;7.10;;;4.77;;
36377;SDS011;22402;42.746;23.606;2023-09-18T02:44:58;8.20;;;5.87;;
36377;SDS011;22402;42.746;23.606;2023-09-18T02:47:24;11.43;;;5.57;;
36377;SDS011;22402;42.746;23.606;2023-09-18T02:49:56;12.73;;;5.90;;
36377;SDS011;22402;42.746;23.606;2023-09-18T02:58:27;9.40;;;5.50;;
36377;SDS011;22402;42.746;23.606;2023-09-18T03:00:55;8.70;;;5.40;;
36377;SDS011;22402;42.746;23.606;2023-09-18T03:03:25;9.13;;;5.40;;
36377;SDS011;22402;42.746;23.606;2023-09-18T03:05:51;10.30;;;6.03;;
36377;SDS011;22402;42.746;23.606;2023-09-18T03:08:16;12.20;;;5.43;;
36377;SDS011;22402;42.746;23.606;2023-09-18T03:10:42;6.70;;;5.80;;
36377;SDS011;22402;42.746;23.606;2023-09-18T03:13:09;7.30;;;5.60;;
36377;SDS011;22402;42.746;23.606;2023-09-18T03:15:41;8.50;;;5.33;;
36377;SDS011;22402;42.746;23.606;2023-09-18T03:18:11;6.43;;;5.57;;
36377;SDS011;22402;42.746;23.606;2023-09-18T03:20:36;12.63;;;5.90;;
36377;SDS011;22402;42.746;23.606;2023-09-18T03:23:02;7.83;;;4.73;;
36377;SDS011;22402;42.746;23.606;2023-09-18T03:25:27;10.33;;;6.10;;
36377;SDS011;22402;42.746;23.606;2023-09-18T03:27:54;13.10;;;6.13;;
36377;SDS011;22402;42.746;23.606;2023-09-18T03:30:21;8.80;;;6.60;;
36377;SDS011;22402;42.746;23.606;2023-09-18T03:32:48;8.67;;;5.93;;
36377;SDS011;22402;42.746;23.606;2023-09-18T03:35:14;9.70;;;6.40;;
36377;SDS011;22402;42.746;23.606;2023-09-18T03:37:47;8.90;;;6.20;;
36377;SDS011;22402;42.746;23.606;2023-09-18T03:40:13;13.90;;;7.27;;
36377;SDS011;22402;42.746;23.606;2023-09-18T03:42:39;10.43;;;7.30;;
36377;SDS011;22402;42.746;23.606;2023-09-18T03:45:05;13.00;;;7.70;;
36377;SDS011;22402;42.746;23.606;2023-09-18T03:47:33;11.37;;;7.00;;
36377;SDS011;22402;42.746;23.606;2023-09-18T03:50:01;10.50;;;7.90;;
36377;SDS011;22402;42.746;23.606;2023-09-18T03:52:29;14.13;;;9.17;;
36377;SDS011;22402;42.746;23.606;2023-09-18T03:54:55;10.17;;;7.97;;
36377;SDS011;22402;42.746;23.606;2023-09-18T03:57:20;10.33;;;8.00;;
36377;SDS011;22402;42.746;23.606;2023-09-18T03:59:46;11.97;;;8.70;;
36377;SDS011;22402;42.746;23.606;2023-09-18T04:02:11;12.30;;;7.10;;
36377;SDS011;22402;42.746;23.606;2023-09-18T04:04:37;10.23;;;8.33;;
36377;SDS011;22402;42.746;23.606;2023-09-18T04:07:05;12.83;;;7.30;;
36377;SDS011;22402;42.746;23.606;2023-09-18T04:09:31;9.47;;;7.70;;
36377;SDS011;22402;42.746;23.606;2023-09-18T04:11:57;10.23;;;8.30;;
36377;SDS011;22402;42.746;23.606;2023-09-18T04:14:31;11.43;;;7.90;;
36377;SDS011;22402;42.746;23.606;2023-09-18T04:16:57;12.30;;;8.50;;
36377;SDS011;22402;42.746;23.606;2023-09-18T04:19:22;10.70;;;9.27;;
36377;SDS011;22402;42.746;23.606;2023-09-18T04:21:48;15.53;;;9.93;;
36377;SDS011;22402;42.746;23.606;2023-09-18T04:24:13;13.73;;;8.20;;
36377;SDS011;22402;42.746;23.606;2023-09-18T04:26:39;12.70;;;9.37;;
36377;SDS011;22402;42.746;23.606;2023-09-18T04:29:04;11.97;;;8.87;;
36377;SDS011;22402;42.746;23.606;2023-09-18T04:31:30;11.87;;;8.83;;
36377;SDS011;22402;42.746;23.606;2023-09-18T04:33:56;10.00;;;8.80;;
36377;SDS011;22402;42.746;23.606;2023-09-18T04:36:22;10.83;;;9.50;;
36377;SDS011;22402;42.746;23.606;2023-09-18T04:38:48;10.47;;;9.47;;
36377;SDS011;22402;42.746;23.606;2023-09-18T04:41:14;12.00;;;8.53;;
36377;SDS011;22402;42.746;23.606;2023-09-18T04:43:40;13.87;;;10.53;;
36377;SDS011;22402;42.746;23.606;2023-09-18T04:46:05;12.13;;;9.13;;
36377;SDS011;22402;42.746;23.606;2023-09-18T04:48:34;12.73;;;10.33;;
36377;SDS011;22402;42.746;23.606;2023-09-18T04:51:00;14.30;;;9.33;;
36377;SDS011;22402;42.746;23.606;2023-09-18T04:53:29;10.33;;;9.33;;
36377;SDS011;22402;42.746;23.606;2023-09-18T04:55:56;11.50;;;8.37;;
36377;SDS011;22402;42.746;23.606;2023-09-18T04:58:21;10.93;;;7.60;;
36377;SDS011;22402;42.746;23.606;2023-09-18T05:00:53;10.43;;;7.70;;
36377;SDS011;22402;42.746;23.606;2023-09-18T05:03:19;10.50;;;6.73;;
36377;SDS011;22402;42.746;23.606;2023-09-18T05:05:45;8.30;;;6.80;;
36377;SDS011;22402;42.746;23.606;2023-09-18T05:08:10;10.00;;;8.20;;
36377;SDS011;22402;42.746;23.606;2023-09-18T05:10:36;8.33;;;7.30;;
36377;SDS011;22402;42.746;23.606;2023-09-18T05:13:02;14.53;;;7.33;;
36377;SDS011;22402;42.746;23.606;2023-09-18T05:15:29;8.17;;;7.10;;
36377;SDS011;22402;42.746;23.606;2023-09-18T05:17:55;9.67;;;7.00;;
36377;SDS011;22402;42.746;23.606;2023-09-18T05:20:23;11.00;;;7.90;;
36377;SDS011;22402;42.746;23.606;2023-09-18T05:22:49;12.07;;;7.10;;
36377;SDS011;22402;42.746;23.606;2023-09-18T05:25:18;10.40;;;7.30;;
36377;SDS011;22402;42.746;23.606;2023-09-18T05:27:44;9.23;;;5.90;;
36377;SDS011;22402;42.746;23.606;2023-09-18T05:30:10;9.00;;;7.10;;
36377;SDS011;22402;42.746;23.606;2023-09-18T05:32:37;7.33;;;6.43;;
36377;SDS011;22402;42.746;23.606;2023-09-18T05:35:03;8.23;;;5.07;;
36377;SDS011;22402;42.746;23.606;2023-09-18T05:37:31;8.17;;;6.00;;
36377;SDS011;22402;42.746;23.606;2023-09-18T05:39:57;9.13;;;5.50;;
36377;SDS011;22402;42.746;23.606;2023-09-18T05:42:22;7.90;;;5.07;;
36377;SDS011;22402;42.746;23.606;2023-09-18T05:44:48;5.53;;;4.80;;
36377;SDS011;22402;42.746;23.606;2023-09-18T05:47:13;7.87;;;5.13;;
36377;SDS011;22402;42.746;23.606;2023-09-18T05:49:39;7.70;;;4.93;;
36377;SDS011;22402;42.746;23.606;2023-09-18T05:52:04;8.53;;;5.70;;
36377;SDS011;22402;42.746;23.606;2023-09-18T05:54:30;7.33;;;4.60;;
36377;SDS011;22402;42.746;23.606;2023-09-18T05:56:55;9.60;;;4.50;;
36377;SDS011;22402;42.746;23.606;2023-09-18T05:59:20;6.80;;;4.73;;
36377;SDS011;22402;42.746;23.606;2023-09-18T06:01:46;6.93;;;5.00;;
36377;SDS011;22402;42.746;23.606;2023-09-18T06:04:13;5.50;;;4.60;;
36377;SDS011;22402;42.746;23.606;2023-09-18T06:06:38;8.27;;;5.00;;
36377;SDS011;22402;42.746;23.606;2023-09-18T06:09:04;7.10;;;4.97;;
36377;SDS011;22402;42.746;23.606;2023-09-18T06:11:29;7.30;;;4.80;;
36377;SDS011;22402;42.746;23.606;2023-09-18T06:13:55;7.70;;;5.40;;
36377;SDS011;22402;42.746;23.606;2023-09-18T06:16:20;5.90;;;4.60;;
36377;SDS011;22402;42.746;23.606;2023-09-18T06:18:46;12.50;;;5.80;;
36377;SDS011;22402;42.746;23.606;2023-09-18T06:21:11;6.87;;;5.10;;
36377;SDS011;22402;42.746;23.606;2023-09-18T06:23:37;9.10;;;5.50;;
36377;SDS011;22402;42.746;23.606;2023-09-18T06:26:02;7.90;;;4.80;;
36377;SDS011;22402;42.746;23.606;2023-09-18T06:28:29;7.83;;;5.30;;
36377;SDS011;22402;42.746;23.606;2023-09-18T06:30:55;12.80;;;5.30;;
36377;SDS011;22402;42.746;23.606;2023-09-18T06:33:21;9.43;;;6.17;;
36377;SDS011;22402;42.746;23.606;2023-09-18T06:35:46;9.73;;;6.10;;
36377;SDS011;22402;42.746;23.606;2023-09-18T06:38:13;8.87;;;6.37;;
36377;SDS011;22402;42.746;23.606;2023-09-18T06:40:40;7.23;;;5.87;;
36377;SDS011;22402;42.746;23.606;2023-09-18T06:43:06;8.77;;;6.13;;
36377;SDS011;22402;42.746;23.606;2023-09-18T06:45:31;8.00;;;5.80;;
36377;SDS011;22402;42.746;23.606;2023-09-18T06:47:58;10.10;;;6.37;;
36377;SDS011;22402;42.746;23.606;2023-09-18T06:50:25;8.83;;;6.30;;
36377;SDS011;22402;42.746;23.606;2023-09-18T06:52:51;8.57;;;6.50;;
36377;SDS011;22402;42.746;23.606;2023-09-18T06:55:16;9.53;;;7.30;;
36377;SDS011;22402;42.746;23.606;2023-09-18T06:57:42;8.40;;;6.03;;
36377;SDS011;22402;42.746;23.606;2023-09-18T07:00:08;7.97;;;5.57;;
36377;SDS011;22402;42.746;23.606;2023-09-18T07:02:33;12.20;;;5.73;;
36377;SDS011;22402;42.746;23.606;2023-09-18T07:04:59;9.07;;;5.73;;
36377;SDS011;22402;42.746;23.606;2023-09-18T07:07:24;8.80;;;5.97;;
36377;SDS011;22402;42.746;23.606;2023-09-18T07:09:50;7.10;;;5.67;;
36377;SDS011;22402;42.746;23.606;2023-09-18T07:12:16;10.70;;;5.70;;
36377;SDS011;22402;42.746;23.606;2023-09-18T07:14:45;8.03;;;5.17;;
36377;SDS011;22402;42.746;23.606;2023-09-18T07:17:11;11.60;;;5.17;;
36377;SDS011;22402;42.746;23.606;2023-09-18T07:19:36;6.80;;;4.07;;
36377;SDS011;22402;42.746;23.606;2023-09-18T07:22:02;6.07;;;4.07;;
36377;SDS011;22402;42.746;23.606;2023-09-18T07:24:27;9.30;;;4.57;;
36377;SDS011;22402;42.746;23.606;2023-09-18T07:26:53;8.30;;;5.10;;
36377;SDS011;22402;42.746;23.606;2023-09-18T07:29:19;6.13;;;4.43;;
36377;SDS011;22402;42.746;23.606;2023-09-18T07:31:46;6.00;;;4.47;;
36377;SDS011;22402;42.746;23.606;2023-09-18T07:34:12;5.90;;;4.47;;
36377;SDS011;22402;42.746;23.606;2023-09-18T07:36:38;4.83;;;3.87;;
36377;SDS011;22402;42.746;23.606;2023-09-18T07:39:05;5.87;;;4.00;;
36377;SDS011;22402;42.746;23.606;2023-09-18T07:41:31;7.17;;;4.37;;
36377;SDS011;22402;42.746;23.606;2023-09-18T07:43:57;7.10;;;4.67;;
36377;SDS011;22402;42.746;23.606;2023-09-18T07:46:24;5.27;;;4.07;;
36377;SDS011;22402;42.746;23.606;2023-09-18T07:48:50;5.23;;;3.67;;
36377;SDS011;22402;42.746;23.606;2023-09-18T07:51:16;4.40;;;4.00;;
36377;SDS011;22402;42.746;23.606;2023-09-18T07:53:42;8.27;;;4.77;;
36377;SDS011;22402;42.746;23.606;2023-09-18T07:56:08;5.10;;;4.33;;
36377;SDS011;22402;42.746;23.606;2023-09-18T07:58:33;5.87;;;4.30;;
36377;SDS011;22402;42.746;23.606;2023-09-18T08:01:03;7.30;;;4.30;;
36377;SDS011;22402;42.746;23.606;2023-09-18T08:03:31;4.10;;;3.23;;
36377;SDS011;22402;42.746;23.606;2023-09-18T08:05:59;4.77;;;4.00;;
36377;SDS011;22402;42.746;23.606;2023-09-18T08:08:26;5.60;;;4.00;;
36377;SDS011;22402;42.746;23.606;2023-09-18T08:10:52;8.17;;;3.70;;
36377;SDS011;22402;42.746;23.606;2023-09-18T08:13:18;5.30;;;4.17;;
36377;SDS011;22402;42.746;23.606;2023-09-18T08:15:45;4.17;;;3.73;;
36377;SDS011;22402;42.746;23.606;2023-09-18T08:18:10;6.27;;;4.53;;
36377;SDS011;22402;42.746;23.606;2023-09-18T08:20:36;5.63;;;4.10;;
36377;SDS011;22402;42.746;23.606;2023-09-18T08:23:05;8.40;;;4.00;;
36377;SDS011;22402;42.746;23.606;2023-09-18T08:25:31;5.10;;;3.40;;
36377;SDS011;22402;42.746;23.606;2023-09-18T08:27:57;4.70;;;3.70;;
36377;SDS011;22402;42.746;23.606;2023-09-18T08:30:23;5.63;;;3.70;;
36377;SDS011;22402;42.746;23.606;2023-09-18T08:32:48;5.63;;;3.67;;
36377;SDS011;22402;42.746;23.606;2023-09-18T08:35:14;5.00;;;3.80;;
36377;SDS011;22402;42.746;23.606;2023-09-18T08:37:42;7.50;;;4.10;;
36377;SDS011;22402;42.746;23.606;2023-09-18T08:40:12;4.80;;;3.83;;
36377;SDS011;22402;42.746;23.606;2023-09-18T08:42:39;5.53;;;3.40;;
36377;SDS011;22402;42.746;23.606;2023-09-18T08:45:58;8.00;;;3.30;;
36377;SDS011;22402;42.746;23.606;2023-09-18T08:48:18;4.63;;;2.90;;
36377;SDS011;22402;42.746;23.606;2023-09-18T08:50:45;4.30;;;3.20;;
36377;SDS011;22402;42.746;23.606;2023-09-18T08:53:12;3.00;;;2.70;;
36377;SDS011;22402;42.746;23.606;2023-09-18T08:55:37;2.93;;;2.43;;
36377;SDS011;22402;42.746;23.606;2023-09-18T08:58:03;3.43;;;2.57;;
36377;SDS011;22402;42.746;23.606;2023-09-18T09:00:29;2.70;;;2.07;;
36377;SDS011;22402;42.746;23.606;2023-09-18T09:02:54;6.07;;;3.20;;
36377;SDS011;22402;42.746;23.606;2023-09-18T09:05:20;6.33;;;2.67;;
36377;SDS011;22402;42.746;23.606;2023-09-18T09:07:47;3.50;;;2.47;;
36377;SDS011;22402;42.746;23.606;2023-09-18T09:10:14;3.20;;;2.53;;
36377;SDS011;22402;42.746;23.606;2023-09-18T09:12:51;6.43;;;2.33;;
36377;SDS011;22402;42.746;23.606;2023-09-18T09:15:24;2.90;;;2.40;;
36377;SDS011;22402;42.746;23.606;2023-09-18T09:17:51;2.37;;;2.17;;
36377;SDS011;22402;42.746;23.606;2023-09-18T09:20:26;3.67;;;2.83;;
36377;SDS011;22402;42.746;23.606;2023-09-18T09:22:51;3.80;;;2.93;;
36377;SDS011;22402;42.746;23.606;2023-09-18T09:25:22;2.90;;;2.70;;
36377;SDS011;22402;42.746;23.606;2023-09-18T09:27:52;3.20;;;2.53;;
36377;SDS011;22402;42.746;23.606;2023-09-18T09:30:19;3.20;;;2.27;;
36377;SDS011;22402;42.746;23.606;2023-09-18T09:32:49;2.23;;;2.03;;
36377;SDS011;22402;42.746;23.606;2023-09-18T09:35:23;2.30;;;2.10;;
36377;SDS011;22402;42.746;23.606;2023-09-18T09:37:49;2.80;;;2.47;;
36377;SDS011;22402;42.746;23.606;2023-09-18T09:40:21;3.70;;;2.70;;
36377;SDS011;22402;42.746;23.606;2023-09-18T09:42:48;3.53;;;3.20;;
36377;SDS011;22402;42.746;23.606;2023-09-18T09:45:16;3.40;;;2.70;;
36377;SDS011;22402;42.746;23.606;2023-09-18T09:47:43;3.40;;;3.10;;
36377;SDS011;22402;42.746;23.606;2023-09-18T09:50:10;5.20;;;3.30;;
36377;SDS011;22402;42.746;23.606;2023-09-18T09:52:45;4.63;;;3.77;;
36377;SDS011;22402;42.746;23.606;2023-09-18T09:55:21;5.10;;;3.70;;
36377;SDS011;22402;42.746;23.606;2023-09-18T09:57:47;4.47;;;3.00;;
36377;SDS011;22402;42.746;23.606;2023-09-18T10:00:14;7.40;;;3.40;;
36377;SDS011;22402;42.746;23.606;2023-09-18T10:03:11;5.40;;;3.20;;
36377;SDS011;22402;42.746;23.606;2023-09-18T10:05:39;3.10;;;2.63;;
36377;SDS011;22402;42.746;23.606;2023-09-18T10:10:38;6.37;;;3.17;;
36377;SDS011;22402;42.746;23.606;2023-09-18T10:13:32;3.73;;;3.00;;
36377;SDS011;22402;42.746;23.606;2023-09-18T10:15:57;3.00;;;2.70;;
36377;SDS011;22402;42.746;23.606;2023-09-18T10:21:22;5.67;;;2.53;;
36377;SDS011;22402;42.746;23.606;2023-09-18T10:24:01;2.40;;;2.20;;
36377;SDS011;22402;42.746;23.606;2023-09-18T10:26:39;3.30;;;2.83;;
36377;SDS011;22402;42.746;23.606;2023-09-18T10:29:10;2.70;;;2.50;;
36377;SDS011;22402;42.746;23.606;2023-09-18T10:31:38;2.50;;;2.30;;
36377;SDS011;22402;42.746;23.606;2023-09-18T10:34:06;2.03;;;1.93;;
36377;SDS011;22402;42.746;23.606;2023-09-18T10:36:32;2.23;;;2.00;;
36377;SDS011;22402;42.746;23.606;2023-09-18T10:38:59;2.70;;;2.10;;
36377;SDS011;22402;42.746;23.606;2023-09-18T10:41:25;2.08;;;1.92;;
36377;SDS011;22402;42.746;23.606;2023-09-18T10:43:53;3.35;;;2.58;;
36377;SDS011;22402;42.746;23.606;2023-09-18T10:46:19;2.65;;;1.98;;
36377;SDS011;22402;42.746;23.606;2023-09-18T10:48:45;3.20;;;2.50;;
36377;SDS011;22402;42.746;23.606;2023-09-18T10:51:12;3.00;;;2.70;;
36377;SDS011;22402;42.746;23.606;2023-09-18T10:53:39;3.23;;;2.47;;
36377;SDS011;22402;42.746;23.606;2023-09-18T10:56:05;4.03;;;2.83;;
36377;SDS011;22402;42.746;23.606;2023-09-18T10:58:32;3.00;;;2.80;;
36377;SDS011;22402;42.746;23.606;2023-09-18T11:01:00;4.70;;;3.40;;
36377;SDS011;22402;42.746;23.606;2023-09-18T11:03:27;4.60;;;3.33;;
36377;SDS011;22402;42.746;23.606;2023-09-18T11:06:02;11.33;;;4.20;;
36377;SDS011;22402;42.746;23.606;2023-09-18T11:11:12;6.57;;;4.10;;
36377;SDS011;22402;42.746;23.606;2023-09-18T11:13:52;5.03;;;3.80;;
36377;SDS011;22402;42.746;23.606;2023-09-18T11:21:28;4.17;;;3.57;;
36377;SDS011;22402;42.746;23.606;2023-09-18T11:23:58;6.60;;;4.37;;
36377;SDS011;22402;42.746;23.606;2023-09-18T11:26:28;4.57;;;4.17;;
36377;SDS011;22402;42.746;23.606;2023-09-18T11:29:03;6.33;;;4.60;;
36377;SDS011;22402;42.746;23.606;2023-09-18T11:34:25;4.87;;;3.90;;
36377;SDS011;22402;42.746;23.606;2023-09-18T11:37:01;9.10;;;3.77;;
36377;SDS011;22402;42.746;23.606;2023-09-18T11:39:44;3.67;;;3.27;;
36377;SDS011;22402;42.746;23.606;2023-09-18T11:42:11;5.73;;;3.80;;
36377;SDS011;22402;42.746;23.606;2023-09-18T11:44:43;4.00;;;2.77;;
36377;SDS011;22402;42.746;23.606;2023-09-18T11:47:12;2.83;;;2.60;;
36377;SDS011;22402;42.746;23.606;2023-09-18T11:49:57;4.07;;;2.90;;
36377;SDS011;22402;42.746;23.606;2023-09-18T11:52:24;3.40;;;2.50;;
36377;SDS011;22402;42.746;23.606;2023-09-18T11:54:51;3.40;;;3.10;;
36377;SDS011;22402;42.746;23.606;2023-09-18T11:57:18;2.83;;;2.43;;
36377;SDS011;22402;42.746;23.606;2023-09-18T11:59:46;2.87;;;2.53;;
36377;SDS011;22402;42.746;23.606;2023-09-18T12:02:34;2.20;;;2.10;;
36377;SDS011;22402;42.746;23.606;2023-09-18T12:05:09;2.87;;;2.67;;
36377;SDS011;22402;42.746;23.606;2023-09-18T12:07:43;3.10;;;1.80;;
36377;SDS011;22402;42.746;23.606;2023-09-18T12:10:10;2.23;;;2.03;;
36377;SDS011;22402;42.746;23.606;2023-09-18T12:12:37;3.40;;;3.10;;
36377;SDS011;22402;42.746;23.606;2023-09-18T12:15:03;2.87;;;2.63;;
36377;SDS011;22402;42.746;23.606;2023-09-18T12:17:29;11.00;;;3.37;;
36377;SDS011;22402;42.746;23.606;2023-09-18T12:19:54;4.90;;;3.30;;
36377;SDS011;22402;42.746;23.606;2023-09-18T12:22:24;4.53;;;2.90;;
36377;SDS011;22402;42.746;23.606;2023-09-18T12:27:39;3.40;;;2.90;;
36377;SDS011;22402;42.746;23.606;2023-09-18T12:30:05;2.97;;;2.67;;
36377;SDS011;22402;42.746;23.606;2023-09-18T12:32:32;3.40;;;3.10;;
36377;SDS011;22402;42.746;23.606;2023-09-18T12:34:58;4.87;;;3.67;;
36377;SDS011;22402;42.746;23.606;2023-09-18T12:37:23;6.63;;;4.07;;
36377;SDS011;22402;42.746;23.606;2023-09-18T12:39:49;4.00;;;3.70;;
36377;SDS011;22402;42.746;23.606;2023-09-18T12:42:17;5.53;;;3.70;;
36377;SDS011;22402;42.746;23.606;2023-09-18T12:44:45;5.90;;;3.97;;
36377;SDS011;22402;42.746;23.606;2023-09-18T12:47:12;6.17;;;4.53;;
36377;SDS011;22402;42.746;23.606;2023-09-18T12:49:37;7.37;;;3.83;;
36377;SDS011;22402;42.746;23.606;2023-09-18T12:52:05;5.00;;;3.20;;
36377;SDS011;22402;42.746;23.606;2023-09-18T12:57:07;4.53;;;3.30;;
36377;SDS011;22402;42.746;23.606;2023-09-18T12:59:35;12.57;;;4.20;;
36377;SDS011;22402;42.746;23.606;2023-09-18T13:02:04;3.77;;;3.20;;
36377;SDS011;22402;42.746;23.606;2023-09-18T13:04:31;6.83;;;3.40;;
36377;SDS011;22402;42.746;23.606;2023-09-18T13:09:37;2.70;;;2.50;;
36377;SDS011;22402;42.746;23.606;2023-09-18T13:12:03;4.73;;;3.00;;
36377;SDS011;22402;42.746;23.606;2023-09-18T13:14:29;4.40;;;2.40;;
36377;SDS011;22402;42.746;23.606;2023-09-18T13:17:01;4.30;;;2.47;;
36377;SDS011;22402;42.746;23.606;2023-09-18T13:19:30;5.17;;;2.77;;
36377;SDS011;22402;42.746;23.606;2023-09-18T13:21:55;3.27;;;2.73;;
36377;SDS011;22402;42.746;23.606;2023-09-18T13:24:39;3.50;;;3.20;;
36377;SDS011;22402;42.746;23.606;2023-09-18T13:27:04;4.40;;;3.20;;
36377;SDS011;22402;42.746;23.606;2023-09-18T13:29:29;3.40;;;3.10;;
36377;SDS011;22402;42.746;23.606;2023-09-18T13:31:55;3.43;;;2.93;;
36377;SDS011;22402;42.746;23.606;2023-09-18T13:34:21;3.30;;;3.00;;
36377;SDS011;22402;42.746;23.606;2023-09-18T13:36:48;2.70;;;2.50;;
36377;SDS011;22402;42.746;23.606;2023-09-18T13:39:13;4.07;;;3.07;;
36377;SDS011;22402;42.746;23.606;2023-09-18T13:41:42;3.50;;;2.73;;
36377;SDS011;22402;42.746;23.606;2023-09-18T13:44:08;2.87;;;2.60;;
36377;SDS011;22402;42.746;23.606;2023-09-18T13:46:34;4.53;;;2.47;;
36377;SDS011;22402;42.746;23.606;2023-09-18T13:49:03;3.00;;;2.80;;
36377;SDS011;22402;42.746;23.606;2023-09-18T13:51:30;4.93;;;2.73;;
36377;SDS011;22402;42.746;23.606;2023-09-18T13:53:58;3.80;;;3.10;;
36377;SDS011;22402;42.746;23.606;2023-09-18T13:56:23;3.53;;;2.73;;
36377;SDS011;22402;42.746;23.606;2023-09-18T13:58:53;2.73;;;2.47;;
36377;SDS011;22402;42.746;23.606;2023-09-18T14:01:20;3.67;;;2.60;;
36377;SDS011;22402;42.746;23.606;2023-09-18T14:03:46;8.03;;;3.07;;
36377;SDS011;22402;42.746;23.606;2023-09-18T14:06:12;5.17;;;2.90;;
36377;SDS011;22402;42.746;23.606;2023-09-18T14:08:37;6.40;;;2.90;;
36377;SDS011;22402;42.746;23.606;2023-09-18T14:11:05;4.60;;;3.57;;
36377;SDS011;22402;42.746;23.606;2023-09-18T14:13:31;3.00;;;2.70;;
36377;SDS011;22402;42.746;23.606;2023-09-18T14:15:59;2.83;;;2.60;;
36377;SDS011;22402;42.746;23.606;2023-09-18T14:18:24;3.50;;;3.00;;
36377;SDS011;22402;42.746;23.606;2023-09-18T14:20:50;2.80;;;2.60;;
36377;SDS011;22402;42.746;23.606;2023-09-18T14:23:15;3.10;;;2.77;;
36377;SDS011;22402;42.746;23.606;2023-09-18T14:25:41;4.57;;;3.63;;
36377;SDS011;22402;42.746;23.606;2023-09-18T14:28:06;4.10;;;3.33;;
36377;SDS011;22402;42.746;23.606;2023-09-18T14:30:32;4.73;;;3.90;;
36377;SDS011;22402;42.746;23.606;2023-09-18T14:32:58;7.90;;;3.70;;
36377;SDS011;22402;42.746;23.606;2023-09-18T14:35:26;3.50;;;3.20;;
36377;SDS011;22402;42.746;23.606;2023-09-18T14:37:52;4.90;;;3.30;;
36377;SDS011;22402;42.746;23.606;2023-09-18T14:40:17;5.20;;;3.20;;
36377;SDS011;22402;42.746;23.606;2023-09-18T14:42:44;4.80;;;3.43;;
36377;SDS011;22402;42.746;23.606;2023-09-18T14:45:10;4.60;;;3.77;;
36377;SDS011;22402;42.746;23.606;2023-09-18T14:47:37;6.73;;;3.47;;
36377;SDS011;22402;42.746;23.606;2023-09-18T14:50:03;3.83;;;3.43;;
36377;SDS011;22402;42.746;23.606;2023-09-18T14:52:31;6.07;;;4.00;;
36377;SDS011;22402;42.746;23.606;2023-09-18T14:54:57;5.70;;;4.10;;
36377;SDS011;22402;42.746;23.606;2023-09-18T14:57:24;7.03;;;3.90;;
36377;SDS011;22402;42.746;23.606;2023-09-18T14:59:51;6.00;;;4.40;;
36377;SDS011;22402;42.746;23.606;2023-09-18T15:02:17;7.77;;;5.00;;
36377;SDS011;22402;42.746;23.606;2023-09-18T15:05:01;10.13;;;4.33;;